Time;durP1;ratioP1;P1;durP2;ratioP2;P2;SDS_P1;SDS_P2;PMS_P1;PMS_P2;Temp;Humidity;BMP_temperature;BMP_pressure;BME280_temperature;BME280_humidity;BME280_pressure;Samples;Min_cycle;Max_cycle;Signal;HPM_P1;HPM_P2
2022/06/17 00:01:28;;;;;;;6.85;5.30;;;;;;;15.81;96.88;95307.56;5078052;28;20073;-76
2022/06/17 00:03:55;;;;;;;9.05;5.95;;;;;;;15.77;97.29;95296.00;5071199;28;20476;-75
2022/06/17 00:06:26;;;;;;;8.90;6.53;;;;;;;15.70;98.02;95303.25;5083735;28;20067;-75
2022/06/17 00:08:54;;;;;;;8.05;6.20;;;;;;;15.55;98.86;95290.00;5069172;28;20044;-75
2022/06/17 00:11:30;;;;;;;18.65;7.68;;;;;;;15.56;100.00;95292.38;5065584;28;20521;-75
2022/06/17 00:13:59;;;;;;;9.77;6.22;;;;;;;15.49;100.00;95276.81;5095013;28;20424;-74
2022/06/17 00:16:33;;;;;;;10.48;5.15;;;;;;;15.40;100.00;95278.34;5070171;28;20052;-74
2022/06/17 00:19:00;;;;;;;8.18;5.10;;;;;;;15.39;99.23;95271.50;5070325;28;20035;-74
2022/06/17 00:21:34;;;;;;;7.63;5.35;;;;;;;15.47;99.13;95289.41;5069225;28;20055;-75
2022/06/17 00:24:05;;;;;;;6.38;5.50;;;;;;;15.45;99.08;95291.50;5083132;28;20055;-74
2022/06/17 00:26:32;;;;;;;7.32;5.70;;;;;;;15.47;99.18;95283.38;5081592;28;20703;-74
2022/06/17 00:28:59;;;;;;;6.15;5.10;;;;;;;15.44;98.98;95295.16;5084492;28;20113;-74
2022/06/17 00:31:26;;;;;;;6.25;5.10;;;;;;;15.40;99.30;95286.22;5071359;28;20460;-73
2022/06/17 00:33:53;;;;;;;7.60;5.70;;;;;;;15.34;99.42;95289.84;5081872;28;20031;-74
2022/06/17 00:36:20;;;;;;;7.22;4.93;;;;;;;15.34;99.70;95289.84;5064630;28;20063;-74
2022/06/17 00:38:47;;;;;;;10.82;5.47;;;;;;;15.29;99.52;95271.41;5084427;28;20048;-74
2022/06/17 00:41:28;;;;;;;5.88;5.28;;;;;;;15.39;99.27;95282.00;5065090;28;20422;-74
2022/06/17 00:43:55;;;;;;;8.50;5.07;;;;;;;15.31;99.47;95279.84;5085231;28;20566;-74
2022/06/17 00:46:25;;;;;;;10.10;4.55;;;;;;;15.32;99.04;95278.78;5071383;28;20064;-74
2022/06/17 00:49:20;;;;;;;6.82;4.97;;;;;;;15.26;99.01;95280.56;5068424;28;20048;-74
2022/06/17 00:52:10;;;;;;;6.03;5.00;;;;;;;15.20;99.66;95278.16;5064300;28;20541;-75
2022/06/17 00:54:46;;;;;;;5.72;4.85;;;;;;;15.13;99.72;95280.97;5063449;28;20542;-75
2022/06/17 00:57:28;;;;;;;7.45;4.95;;;;;;;15.12;99.93;95281.22;5064333;28;20047;-75
2022/06/17 01:00:07;;;;;;;5.07;4.57;;;;;;;15.03;100.00;95278.25;5063828;28;20036;-75
2022/06/17 01:02:40;;;;;;;9.15;5.28;;;;;;;15.03;100.00;95279.03;5066404;28;20054;-75
2022/06/17 01:05:09;;;;;;;5.78;5.03;;;;;;;14.98;100.00;95268.53;5046236;28;20045;-75
2022/06/17 01:07:41;;;;;;;9.55;5.03;;;;;;;15.00;100.00;95268.25;5063343;28;21160;-75
2022/06/17 01:10:12;;;;;;;9.82;5.30;;;;;;;14.97;100.00;95258.28;5066725;28;20581;-75
2022/06/17 01:12:43;;;;;;;5.15;4.38;;;;;;;15.06;100.00;95268.06;5061101;28;20040;-75
2022/06/17 01:15:18;;;;;;;6.97;4.10;;;;;;;15.05;100.00;95266.50;5064396;28;20083;-75
2022/06/17 01:17:49;;;;;;;5.20;4.32;;;;;;;15.01;100.00;95275.09;5065809;28;20078;-75
2022/06/17 01:20:18;;;;;;;5.15;4.35;;;;;;;14.95;100.00;95261.13;5067354;28;20644;-75
2022/06/17 01:22:55;;;;;;;6.18;4.78;;;;;;;15.00;100.00;95255.94;5061874;28;20044;-75
2022/06/17 01:25:34;;;;;;;5.78;4.60;;;;;;;14.92;99.99;95248.50;5086287;28;20060;-75
2022/06/17 01:28:05;;;;;;;5.70;4.35;;;;;;;14.86;100.00;95252.13;5081535;28;20044;-74
2022/06/17 01:30:53;;;;;;;8.90;4.90;;;;;;;14.97;99.54;95251.19;5064248;28;20779;-75
2022/06/17 01:33:25;;;;;;;5.90;4.18;;;;;;;14.93;100.00;95254.53;5064551;28;20052;-75
2022/06/17 01:36:07;;;;;;;7.22;4.38;;;;;;;14.90;100.00;95246.13;5063580;28;20717;-75
2022/06/17 01:38:36;;;;;;;9.30;4.55;;;;;;;14.85;100.00;95250.53;5062442;28;20101;-74
2022/06/17 01:41:05;;;;;;;6.28;5.00;;;;;;;14.81;100.00;95244.22;5065544;28;20120;-74
2022/06/17 01:43:43;;;;;;;9.13;5.88;;;;;;;14.81;100.00;95244.22;5061789;28;20043;-75
2022/06/17 01:46:16;;;;;;;6.38;4.32;;;;;;;14.75;100.00;95232.06;5083898;28;20032;-75
2022/06/17 01:48:49;;;;;;;5.18;4.47;;;;;;;14.82;100.00;95232.66;5063352;28;20102;-75
2022/06/17 01:51:20;;;;;;;5.53;4.67;;;;;;;14.82;100.00;95235.28;5073301;28;20479;-75
2022/06/17 01:53:51;;;;;;;6.43;4.60;;;;;;;14.75;100.00;95213.72;5063119;28;20039;-75
2022/06/17 01:56:22;;;;;;;8.02;4.85;;;;;;;14.79;100.00;95226.09;5066700;28;21995;-75
2022/06/17 01:58:53;;;;;;;6.47;4.78;;;;;;;14.78;100.00;95239.44;5064524;28;20608;-75
2022/06/17 02:01:24;;;;;;;10.82;5.00;;;;;;;14.60;100.00;95217.75;5063197;28;20075;-75
2022/06/17 02:04:02;;;;;;;6.45;4.18;;;;;;;14.77;100.00;95236.03;5063841;28;20418;-75
2022/06/17 02:07:20;;;;;;;6.78;5.45;;;;;;;14.75;100.00;95229.44;5089750;27;20054;-75
2022/06/17 02:09:48;;;;;;;7.78;4.75;;;;;;;14.67;100.00;95228.06;5034881;28;20076;-75
2022/06/17 02:12:19;;;;;;;6.32;5.50;;;;;;;14.70;100.00;95243.31;5061975;28;20665;-75
2022/06/17 02:14:54;;;;;;;5.57;4.63;;;;;;;14.66;100.00;95242.22;5091076;27;20752;-75
2022/06/17 02:17:43;;;;;;;6.32;4.30;;;;;;;14.60;100.00;95243.97;5049014;28;20063;-75
2022/06/17 02:20:22;;;;;;;6.38;4.97;;;;;;;14.60;100.00;95249.22;5042939;28;20604;-75
2022/06/17 02:22:51;;;;;;;6.68;5.15;;;;;;;14.60;100.00;95241.34;5044618;28;20044;-75
2022/06/17 02:25:27;;;;;;;6.32;4.65;;;;;;;14.58;100.00;95245.28;5041647;28;20040;-75
2022/06/17 02:27:57;;;;;;;4.85;4.20;;;;;;;14.57;100.00;95251.50;5030044;28;20045;-75
2022/06/17 02:30:28;;;;;;;5.95;4.45;;;;;;;14.49;100.00;95242.25;5044223;28;20041;-75
2022/06/17 02:33:00;;;;;;;5.85;5.07;;;;;;;14.43;100.00;95232.78;5040986;28;20148;-75
2022/06/17 02:35:27;;;;;;;7.05;4.72;;;;;;;14.49;100.00;95248.28;5039777;28;20041;-75
2022/06/17 02:37:54;;;;;;;5.70;4.60;;;;;;;14.48;100.00;95251.19;5042176;28;20066;-75
2022/06/17 02:40:34;;;;;;;9.07;5.82;;;;;;;14.46;100.00;95246.19;5039955;28;20043;-75
2022/06/17 02:43:05;;;;;;;7.93;4.93;;;;;;;14.46;100.00;95248.00;5044883;28;20218;-76
2022/06/17 02:45:35;;;;;;;6.85;5.13;;;;;;;14.43;100.00;95243.25;5043003;28;20048;-75
2022/06/17 02:48:27;;;;;;;5.35;4.70;;;;;;;14.37;100.00;95233.72;5043596;28;20127;-75
2022/06/17 02:50:57;;;;;;;5.60;4.50;;;;;;;14.33;100.00;95239.47;5072675;28;20037;-75
2022/06/17 02:53:28;;;;;;;6.13;4.75;;;;;;;14.39;100.00;95242.16;5039461;28;20040;-76
2022/06/17 02:55:57;;;;;;;5.53;4.75;;;;;;;14.29;100.00;95233.13;5042518;28;20592;-75
2022/06/17 02:58:48;;;;;;;5.50;4.63;;;;;;;14.34;100.00;95246.28;5038188;28;20040;-76
2022/06/17 03:01:22;;;;;;;5.63;4.75;;;;;;;14.36;100.00;95242.66;5046129;28;21405;-75
2022/06/17 03:03:58;;;;;;;6.35;5.15;;;;;;;14.31;100.00;95244.19;5079155;28;20060;-75
2022/06/17 03:06:35;;;;;;;6.55;5.40;;;;;;;14.37;100.00;95254.69;5051995;28;20047;-75
2022/06/17 03:09:21;;;;;;;5.88;5.22;;;;;;;14.33;100.00;95249.97;5045166;28;20535;-75
2022/06/17 03:12:13;;;;;;;5.40;4.90;;;;;;;14.36;100.00;95258.38;5047297;28;20079;-75
2022/06/17 03:14:57;;;;;;;6.90;5.00;;;;;;;14.38;100.00;95259.69;5038501;28;20037;-75
2022/06/17 03:17:25;;;;;;;5.45;4.93;;;;;;;14.36;100.00;95259.16;5057365;28;20887;-75
2022/06/17 03:19:55;;;;;;;9.68;5.53;;;;;;;14.18;100.00;95228.81;5055933;28;20549;-75
2022/06/17 03:22:24;;;;;;;5.57;4.57;;;;;;;14.34;100.00;95248.91;5057165;28;20055;-75
2022/06/17 03:25:01;;;;;;;10.52;4.55;;;;;;;14.43;100.00;95253.72;5059492;28;20046;-74
2022/06/17 03:27:39;;;;;;;7.00;4.72;;;;;;;14.33;100.00;95233.44;5057989;28;20044;-75
2022/06/17 03:30:09;;;;;;;6.55;4.85;;;;;;;14.47;100.00;95260.06;5040002;28;20083;-75
2022/06/17 03:32:42;;;;;;;7.63;5.43;;;;;;;14.48;100.00;95248.56;5059741;28;20036;-75
2022/06/17 03:35:24;;;;;;;9.88;4.93;;;;;;;14.59;100.00;95252.91;5056682;28;20044;-75
2022/06/17 03:37:59;;;;;;;9.45;5.30;;;;;;;14.65;100.00;95257.16;5044096;28;20109;-75
2022/06/17 03:40:47;;;;;;;6.47;4.35;;;;;;;14.69;100.00;95258.25;5039713;28;20045;-75
2022/06/17 03:43:32;;;;;;;8.25;4.82;;;;;;;14.78;100.00;95245.47;5059733;28;20711;-75
2022/06/17 03:46:06;;;;;;;10.68;4.68;;;;;;;14.83;100.00;95250.78;5042432;28;20044;-75
2022/06/17 03:48:55;;;;;;;9.13;4.95;;;;;;;14.74;100.00;95238.38;5061619;28;20044;-75
2022/06/17 03:51:24;;;;;;;5.00;4.25;;;;;;;14.85;100.00;95250.53;5057349;28;20033;-75
2022/06/17 03:53:54;;;;;;;11.70;5.18;;;;;;;14.92;100.00;95243.25;5072996;28;20036;-75
2022/06/17 03:56:31;;;;;;;7.32;4.53;;;;;;;15.07;100.00;95259.16;5039343;28;20041;-75
2022/06/17 03:59:00;;;;;;;;;;;;;;;15.19;100.00;95271.31;5060323;28;20071;-75
2022/06/17 04:01:37;;;;;;;5.25;4.40;;;;;;;15.29;100.00;95271.41;5040509;28;19981;-76
2022/06/17 04:04:37;;;;;;;7.28;5.03;;;;;;;15.38;100.00;95264.66;5057591;28;20045;-76
2022/06/17 04:07:05;;;;;;;7.72;5.10;;;;;;;15.54;100.00;95283.16;5036388;28;20570;-76
2022/06/17 04:09:39;;;;;;;12.63;5.40;;;;;;;15.66;100.00;95281.16;5088206;28;20785;-76
2022/06/17 04:12:20;;;;;;;9.18;5.13;;;;;;;15.74;100.00;95266.78;5058765;28;20124;-76
2022/06/17 04:15:13;;;;;;;7.80;4.45;;;;;;;15.98;99.33;95285.59;5057388;28;20114;-76
2022/06/17 04:17:48;;;;;;;7.60;4.45;;;;;;;16.09;98.53;95289.09;5046324;28;20049;-75
2022/06/17 04:20:35;;;;;;;8.45;4.90;;;;;;;16.17;98.31;95276.25;5046354;28;20045;-72
2022/06/17 04:23:11;;;;;;;5.18;4.10;;;;;;;16.38;97.30;95286.88;5038019;28;20071;-76
2022/06/17 04:26:08;;;;;;;5.97;4.25;;;;;;;16.54;97.16;95295.63;5061884;28;20064;-68
2022/06/17 04:28:54;;;;;;;5.35;4.55;;;;;;;16.65;95.86;95291.19;5041089;28;20052;-68
2022/06/17 04:31:27;;;;;;;11.75;4.47;;;;;;;16.74;94.09;95289.63;5039462;28;20037;-67
2022/06/17 04:33:59;;;;;;;5.75;3.97;;;;;;;16.88;94.13;95288.13;5041339;28;20746;-67
2022/06/17 04:36:33;;;;;;;5.35;4.22;;;;;;;16.98;92.39;95296.06;5048210;28;20127;-67
2022/06/17 04:39:03;;;;;;;6.43;3.53;;;;;;;17.10;91.03;95292.41;5044216;28;20418;-67
2022/06/17 04:41:49;;;;;;;8.93;3.60;;;;;;;17.17;90.43;95298.19;5038594;28;20056;-67
2022/06/17 04:44:24;;;;;;;6.57;3.78;;;;;;;17.26;90.69;95286.09;5035168;28;20041;-67
2022/06/17 04:47:13;;;;;;;10.60;3.95;;;;;;;17.39;89.65;95285.59;5067261;28;20056;-66
2022/06/17 04:49:58;;;;;;;6.30;3.47;;;;;;;17.46;88.31;95276.63;5037612;28;20087;-67
2022/06/17 04:52:37;;;;;;;4.80;3.60;;;;;;;17.62;88.37;95286.13;5042120;28;20139;-67
2022/06/17 04:55:36;;;;;;;5.88;3.88;;;;;;;17.72;86.94;95283.50;5038694;28;20068;-66
2022/06/17 04:58:19;;;;;;;4.45;4.05;;;;;;;17.80;85.57;95289.28;5039915;28;20045;-67
2022/06/17 05:00:55;;;;;;;7.35;5.05;;;;;;;17.95;84.98;95289.28;5037456;28;20049;-67
2022/06/17 05:03:40;;;;;;;7.30;4.35;;;;;;;18.04;85.77;95295.63;5044258;28;20084;-67
2022/06/17 05:06:16;;;;;;;7.20;4.95;;;;;;;18.13;84.76;95294.00;5039693;28;20049;-67
2022/06/17 05:08:51;;;;;;;11.85;4.43;;;;;;;18.27;85.21;95294.22;5042032;28;20068;-67
2022/06/17 05:11:26;;;;;;;4.68;3.78;;;;;;;18.43;83.79;95287.06;5039520;28;20037;-67
2022/06/17 05:14:03;;;;;;;7.45;3.70;;;;;;;18.44;80.26;95278.09;5041348;28;20067;-67
2022/06/17 05:16:32;;;;;;;4.10;3.55;;;;;;;18.68;79.71;95293.31;5038361;28;20625;-67
2022/06/17 05:19:00;;;;;;;6.57;3.15;;;;;;;18.79;79.42;95294.84;5037167;28;20041;-66
2022/06/17 05:21:27;;;;;;;5.50;3.38;;;;;;;18.96;78.28;95285.81;5037153;28;20412;-66
2022/06/17 05:24:03;;;;;;;5.28;2.90;;;;;;;19.07;77.00;95284.69;5040052;28;20079;-66
2022/06/17 05:26:30;;;;;;;6.90;2.95;;;;;;;19.11;76.24;95280.44;5039942;28;20114;-67
2022/06/17 05:28:59;;;;;;;6.70;3.50;;;;;;;19.16;75.83;95288.34;5038507;28;20488;-66
2022/06/17 05:31:30;;;;;;;6.18;3.38;;;;;;;19.13;75.93;95283.59;5038681;28;21017;-66
2022/06/17 05:34:01;;;;;;;4.00;3.22;;;;;;;19.18;73.61;95286.22;5037183;28;20045;-66
2022/06/17 05:36:29;;;;;;;3.55;3.15;;;;;;;19.17;73.81;95284.63;5062957;28;20045;-66
2022/06/17 05:38:57;;;;;;;4.25;2.80;;;;;;;19.19;74.29;95282.50;5044604;28;20044;-67
2022/06/17 05:41:25;;;;;;;5.15;3.33;;;;;;;19.35;74.15;95290.31;5047834;28;20461;-66
2022/06/17 05:43:54;;;;;;;4.22;2.63;;;;;;;19.47;73.29;95282.84;5046266;28;20052;-66
2022/06/17 05:46:31;;;;;;;3.92;2.90;;;;;;;19.58;70.42;95268.47;5055186;28;20044;-66
2022/06/17 05:49:15;;;;;;;3.80;2.85;;;;;;;19.79;69.87;95279.72;5045268;28;20048;-66
2022/06/17 05:52:11;;;;;;;3.92;2.80;;;;;;;19.95;68.93;95277.72;5018834;28;20060;-67
2022/06/17 05:55:05;;;;;;;4.47;2.70;;;;;;;20.12;69.15;95271.22;5044723;28;20052;-67
2022/06/17 05:57:32;;;;;;;4.65;2.58;;;;;;;20.27;66.91;95276.31;5044634;28;20114;-66
2022/06/17 05:59:59;;;;;;;14.45;3.88;;;;;;;20.29;66.97;95279.47;5045414;28;20108;-67
2022/06/17 06:02:38;;;;;;;4.65;2.50;;;;;;;20.39;66.45;95276.72;5054995;28;20056;-65
2022/06/17 06:05:18;;;;;;;6.88;2.50;;;;;;;20.58;65.08;95278.63;5050285;28;20041;-65
2022/06/17 06:07:47;;;;;;;2.97;2.60;;;;;;;20.69;64.90;95274.81;5054704;28;20056;-66
2022/06/17 06:10:16;;;;;;;3.90;2.65;;;;;;;20.72;63.76;95274.22;5056893;28;20049;-72
2022/06/17 06:15:42;;;;;;;2.65;2.20;;;;;;;21.02;62.68;95274.13;5049091;28;20080;-73
2022/06/17 06:18:27;;;;;;;4.55;2.92;;;;;;;21.24;62.77;95273.56;5038865;28;20033;-73
2022/06/17 06:20:55;;;;;;;4.78;2.33;;;;;;;21.39;61.74;95273.31;5044171;28;20117;-72
2022/06/17 06:23:26;;;;;;;3.33;2.33;;;;;;;21.50;59.24;95266.81;5037806;28;20041;-72
2022/06/17 06:25:53;;;;;;;5.50;2.40;;;;;;;21.60;58.11;95275.69;5035433;28;20315;-71
2022/06/17 06:28:23;;;;;;;2.38;1.95;;;;;;;21.76;59.05;95269.84;5040739;28;20040;-69
2022/06/17 06:31:25;;;;;;;6.07;2.78;;;;;;;22.00;59.27;95273.41;5038004;28;20072;-74
2022/06/17 06:33:54;;;;;;;7.28;3.08;;;;;;;22.10;57.35;95274.03;5038767;28;20068;-67
2022/06/17 06:36:23;;;;;;;5.63;2.67;;;;;;;22.25;56.44;95270.28;5037851;28;20106;-68
2022/06/17 06:38:50;;;;;;;5.38;2.97;;;;;;;22.29;56.37;95266.03;5040642;28;20057;-73
2022/06/17 06:41:20;;;;;;;5.85;2.83;;;;;;;22.42;55.94;95274.25;5037808;28;20819;-73
2022/06/17 06:43:49;;;;;;;5.75;2.70;;;;;;;22.46;55.10;95264.66;5041542;28;20619;-74
2022/06/17 06:46:35;;;;;;;5.57;2.67;;;;;;;22.58;55.32;95267.59;5042102;28;20167;-73
2022/06/17 06:49:04;;;;;;;2.90;2.60;;;;;;;22.59;53.34;95258.53;5046571;28;20052;-69
2022/06/17 06:51:32;;;;;;;3.33;2.42;;;;;;;22.77;55.07;95264.03;5037820;28;20040;-66
2022/06/17 06:53:59;;;;;;;3.47;1.92;;;;;;;22.94;52.18;95255.44;5036187;28;20132;-66
2022/06/17 06:56:27;;;;;;;5.68;2.38;;;;;;;22.90;52.29;95241.97;5037868;28;20742;-67
2022/06/17 06:58:56;;;;;;;4.20;2.53;;;;;;;23.07;52.12;95259.97;5036124;28;20048;-68
2022/06/17 07:01:22;;;;;;;6.90;2.58;;;;;;;23.00;51.47;95256.91;5038733;28;20029;-67
2022/06/17 07:03:49;;;;;;;7.15;2.10;;;;;;;23.04;50.48;95258.69;5038252;28;20040;-67
2022/06/17 07:06:17;;;;;;;4.07;2.22;;;;;;;23.10;53.46;95256.69;5037865;28;20700;-76
2022/06/17 07:08:43;;;;;;;9.98;2.65;;;;;;;23.18;53.18;95247.25;5029535;28;20052;-76
2022/06/17 07:11:10;;;;;;;3.45;2.70;;;;;;;23.29;52.27;95248.56;5050122;28;20044;-75
2022/06/17 07:13:41;;;;;;;3.35;2.55;;;;;;;23.39;51.48;95256.31;5043780;28;20064;-76
2022/06/17 07:16:11;;;;;;;4.10;2.60;;;;;;;23.31;52.17;95246.38;5044004;28;20064;-77
2022/06/17 07:18:38;;;;;;;3.40;3.10;;;;;;;23.44;54.81;95256.19;5084326;28;20493;-77
2022/06/17 07:21:12;;;;;;;4.45;3.05;;;;;;;23.51;53.01;95254.97;5061716;28;20051;-76
2022/06/17 07:23:45;;;;;;;3.67;3.03;;;;;;;23.67;52.39;95253.50;5081361;28;20040;-72
2022/06/17 07:26:23;;;;;;;4.20;3.00;;;;;;;23.79;51.66;95258.28;5060554;28;20032;-77
2022/06/17 07:28:52;;;;;;;3.88;2.58;;;;;;;23.85;52.50;95255.19;5080034;28;20074;-75
2022/06/17 07:31:21;;;;;;;4.22;2.97;;;;;;;23.65;50.56;95250.38;5040740;28;20074;-77
2022/06/17 07:33:50;;;;;;;4.80;3.00;;;;;;;23.48;51.54;95245.75;5082523;28;20040;-75
2022/06/17 07:41:56;;;;;;;4.78;2.83;;;;;;;24.16;53.44;95238.44;5083068;28;20709;-75
2022/06/17 07:44:23;;;;;;;4.47;3.20;;;;;;;24.34;51.84;95230.53;5066533;28;20040;-76
2022/06/17 07:46:50;;;;;;;3.47;3.17;;;;;;;24.51;51.81;95233.25;5078434;28;20062;-75
2022/06/17 07:49:18;;;;;;;3.47;2.92;;;;;;;24.41;49.07;95239.63;5043385;28;20425;-76
2022/06/17 07:51:46;;;;;;;4.88;3.08;;;;;;;24.15;50.37;95236.88;5075587;28;20085;-76
2022/06/17 07:54:13;;;;;;;5.00;2.83;;;;;;;24.23;50.23;95233.47;5060219;28;20032;-76
2022/06/17 07:56:40;;;;;;;7.95;3.45;;;;;;;24.41;49.82;95238.84;5074466;28;20036;-76
2022/06/17 07:59:07;;;;;;;6.05;3.10;;;;;;;24.32;49.75;95236.16;5060139;28;20055;-76
2022/06/17 08:01:34;;;;;;;3.65;3.25;;;;;;;24.30;49.33;95226.91;5075249;28;20044;-76
2022/06/17 08:04:01;;;;;;;4.63;3.70;;;;;;;24.53;50.90;95231.06;5077564;28;20036;-75
2022/06/17 08:06:28;;;;;;;7.55;3.63;;;;;;;24.84;50.12;95230.19;5062030;28;20097;-75
2022/06/17 08:08:56;;;;;;;5.65;3.70;;;;;;;24.99;50.32;95235.06;5059812;28;20712;-76
2022/06/17 08:11:24;;;;;;;5.03;4.50;;;;;;;25.04;46.37;95241.34;5060531;28;20040;-75
2022/06/17 08:13:51;;;;;;;3.60;3.30;;;;;;;25.04;47.52;95238.66;5078386;28;20054;-76
2022/06/17 08:16:18;;;;;;;4.15;3.75;;;;;;;25.13;49.42;95226.13;5061677;28;20536;-76
2022/06/17 08:18:45;;;;;;;4.35;3.58;;;;;;;25.26;46.57;95235.88;5059089;28;20047;-76
2022/06/17 08:21:12;;;;;;;11.05;4.63;;;;;;;25.36;47.30;95235.56;5061924;28;20060;-76
2022/06/17 08:23:40;;;;;;;8.02;4.68;;;;;;;25.43;46.74;95228.97;5058712;28;20578;-75
2022/06/17 08:26:07;;;;;;;5.85;4.53;;;;;;;25.41;46.16;95225.81;5060581;28;20040;-74
2022/06/17 08:28:34;;;;;;;5.13;3.95;;;;;;;25.28;48.54;95228.34;5079095;28;20063;-75
2022/06/17 08:31:01;;;;;;;11.25;5.20;;;;;;;25.45;46.91;95224.09;5065424;28;20051;-75
2022/06/17 08:33:29;;;;;;;7.30;4.90;;;;;;;25.21;49.12;95205.88;5049102;28;20459;-75
2022/06/17 08:36:17;;;;;;;;;;;;;;;25.19;49.07;95219.53;5065629;28;20040;-75
2022/06/17 08:38:49;;;;;;;6.22;4.80;;;;;;;25.23;49.48;95215.16;5079967;28;20324;-75
2022/06/17 08:42:11;;;;;;;7.30;5.45;;;;;;;25.61;49.71;95213.72;5083461;28;20611;-75
2022/06/17 08:45:27;;;;;;;6.32;4.70;;;;;;;26.11;48.66;95210.47;5056873;28;20630;-75
2022/06/17 08:48:04;;;;;;;6.97;4.90;;;;;;;26.32;46.62;95215.84;5036508;28;20048;-75
2022/06/17 08:50:59;;;;;;;7.43;4.40;;;;;;;26.49;45.28;95201.63;5078629;28;20079;-75
2022/06/17 08:53:53;;;;;;;6.47;4.97;;;;;;;26.70;47.53;95209.69;5065014;28;20051;-75
2022/06/17 08:56:56;;;;;;;7.50;4.85;;;;;;;26.98;45.63;95214.53;5053772;28;20609;-75
2022/06/17 08:59:29;;;;;;;7.57;4.30;;;;;;;26.84;43.62;95215.56;5061445;28;20063;-75
2022/06/17 09:02:19;;;;;;;10.82;5.85;;;;;;;26.39;44.78;95216.13;5063149;28;20035;-75
2022/06/17 09:05:13;;;;;;;9.63;5.60;;;;;;;26.45;44.38;95209.50;5086359;28;20574;-76
2022/06/17 09:07:53;;;;;;;8.32;5.65;;;;;;;26.32;46.18;95210.50;5073748;28;20039;-75
2022/06/17 09:10:20;;;;;;;8.88;5.38;;;;;;;26.09;48.08;95208.09;5073841;28;20028;-76
2022/06/17 09:13:11;;;;;;;7.90;5.95;;;;;;;25.97;46.86;95209.88;5068543;28;20062;-75
2022/06/17 09:15:53;;;;;;;8.10;5.40;;;;;;;26.44;46.71;95207.94;5071174;28;20040;-75
2022/06/17 09:18:33;;;;;;;6.28;4.80;;;;;;;26.84;44.77;95204.88;5088587;28;20036;-76
2022/06/17 09:21:22;;;;;;;6.80;5.00;;;;;;;26.96;44.16;95208.72;5077922;28;20056;-75
2022/06/17 09:23:51;;;;;;;7.40;4.88;;;;;;;26.58;44.14;95206.88;5067879;28;20066;-75
2022/06/17 09:26:29;;;;;;;7.13;5.63;;;;;;;26.93;45.16;95204.03;5070430;28;20048;-75
2022/06/17 09:29:28;;;;;;;8.20;5.22;;;;;;;27.52;44.81;95206.53;5094353;28;20420;-76
2022/06/17 09:32:22;;;;;;;7.43;5.15;;;;;;;27.71;44.44;95205.22;5062895;28;20130;-76
2022/06/17 09:35:04;;;;;;;5.65;4.85;;;;;;;27.54;45.06;95198.94;5050299;28;20043;-76
2022/06/17 09:37:43;;;;;;;9.55;5.30;;;;;;;27.54;43.83;95198.94;5062243;28;20040;-76
2022/06/17 09:40:17;;;;;;;10.23;5.25;;;;;;;27.31;43.98;95195.84;5063203;28;20044;-76
2022/06/17 09:42:53;;;;;;;8.40;4.55;;;;;;;26.69;45.00;95202.78;5045646;28;20044;-76
2022/06/17 09:45:35;;;;;;;7.78;5.22;;;;;;;26.46;44.63;95200.38;5081683;28;20421;-76
2022/06/17 09:48:39;;;;;;;6.43;5.35;;;;;;;26.54;43.58;95200.63;5080042;28;20590;-76
2022/06/17 09:51:40;;;;;;;8.07;6.50;;;;;;;26.61;45.76;95187.59;5072165;28;20437;-76
2022/06/17 09:54:28;;;;;;;8.85;5.40;;;;;;;26.89;44.03;95191.31;5060214;28;20048;-76
2022/06/17 09:56:55;;;;;;;7.07;5.20;;;;;;;26.67;44.64;95199.66;5065347;28;20048;-75
2022/06/17 09:59:24;;;;;;;6.00;5.32;;;;;;;26.89;42.32;95191.31;5062230;28;20047;-75
2022/06/17 10:01:54;;;;;;;7.43;5.40;;;;;;;27.07;41.74;95181.25;5082854;28;20105;-75
2022/06/17 10:04:24;;;;;;;8.77;6.03;;;;;;;27.08;42.57;95195.41;5060442;28;21513;-75
2022/06/17 10:07:17;;;;;;;9.00;6.70;;;;;;;27.01;42.71;95181.78;5065406;28;20062;-75
2022/06/17 10:10:05;;;;;;;11.00;6.28;;;;;;;27.09;42.18;95164.91;5059008;28;20150;-75
2022/06/17 10:12:38;;;;;;;9.82;5.90;;;;;;;27.24;42.59;95180.34;5064742;28;20044;-75
2022/06/17 10:15:30;;;;;;;8.00;6.35;;;;;;;27.38;42.23;95184.63;5061939;28;20044;-75
2022/06/17 10:18:34;;;;;;;7.68;5.93;;;;;;;27.44;39.97;95177.97;5067009;28;20138;-72
2022/06/17 10:21:21;;;;;;;;;;;;;;;27.78;38.37;95178.72;5059278;28;20552;-75
2022/06/17 10:24:03;;;;;;;11.25;5.57;;;;;;;27.95;40.80;95167.84;5080227;28;19926;-75
2022/06/17 10:26:52;;;;;;;6.38;5.35;;;;;;;27.83;38.09;95173.13;5075493;28;20040;-75
2022/06/17 10:29:43;;;;;;;9.77;5.70;;;;;;;27.82;39.64;95171.56;5080190;28;20423;-74
2022/06/17 10:32:10;;;;;;;16.20;5.45;;;;;;;27.60;39.81;95170.91;5056947;28;20050;-74
2022/06/17 10:34:48;;;;;;;8.20;6.50;;;;;;;27.73;39.15;95162.88;5086957;28;20031;-75
2022/06/17 10:37:18;;;;;;;9.55;5.07;;;;;;;27.96;39.88;95166.69;5078598;28;20040;-76
2022/06/17 10:40:08;;;;;;;7.45;5.40;;;;;;;27.86;37.95;95167.13;5080505;28;20439;-76
2022/06/17 10:42:35;;;;;;;6.40;5.03;;;;;;;27.79;38.76;95158.88;5079927;28;20043;-76
2022/06/17 10:45:03;;;;;;;6.97;4.55;;;;;;;27.82;36.94;95158.19;5065785;28;20040;-76
2022/06/17 10:47:41;;;;;;;7.55;5.13;;;;;;;28.02;37.28;95164.63;5081515;28;20055;-76
2022/06/17 10:50:22;;;;;;;6.10;4.65;;;;;;;28.19;38.21;95158.25;5048714;28;20052;-77
2022/06/17 10:53:00;;;;;;;6.80;5.85;;;;;;;28.33;37.03;95158.69;5062213;28;20045;-77
2022/06/17 10:55:42;;;;;;;5.13;4.43;;;;;;;28.50;37.77;95163.00;5063408;28;20039;-76
2022/06/17 10:58:22;;;;;;;7.30;5.63;;;;;;;28.42;37.14;95159.31;5040696;28;20048;-76
2022/06/17 11:00:57;;;;;;;7.78;6.10;;;;;;;28.84;36.78;95154.81;5089117;27;20755;-76
2022/06/17 11:03:29;;;;;;;7.65;5.07;;;;;;;28.87;35.32;95170.22;5057357;28;20047;-77
2022/06/17 11:06:08;;;;;;;6.55;5.10;;;;;;;28.75;36.30;95169.09;5084690;28;20089;-75
2022/06/17 11:08:48;;;;;;;7.07;5.18;;;;;;;28.72;35.51;95175.16;5076273;28;20571;-75
2022/06/17 11:14:20;;;;;;;8.55;5.13;;;;;;;27.15;42.64;95171.59;5076029;28;20046;-71
2022/06/17 11:16:47;;;;;;;11.57;5.50;;;;;;;26.34;45.21;95170.91;5078583;28;20087;-70
2022/06/17 11:19:20;;;;;;;6.20;5.60;;;;;;;25.91;46.12;95185.22;5058693;28;20632;-69
2022/06/17 11:21:53;;;;;;;14.82;5.40;;;;;;;25.69;48.07;95173.69;5082979;28;20044;-70
2022/06/17 11:24:35;;;;;;;7.75;5.72;;;;;;;25.51;47.51;95166.84;5059550;28;20051;-70
2022/06/17 11:27:17;;;;;;;24.65;6.30;;;;;;;25.55;49.08;95157.09;5078386;28;20638;-70
2022/06/17 11:29:48;;;;;;;7.43;5.38;;;;;;;25.54;48.99;95156.31;5077167;28;20044;-70
2022/06/17 11:32:20;;;;;;;9.82;6.57;;;;;;;25.44;50.92;95153.22;5079441;28;20040;-67
2022/06/17 11:34:52;;;;;;;11.45;7.18;;;;;;;25.40;49.63;95154.94;5054926;28;21060;-68
2022/06/17 11:37:34;;;;;;;8.43;6.85;;;;;;;25.46;48.57;95149.13;5080772;28;20063;-67
2022/06/17 11:40:18;;;;;;;9.98;5.45;;;;;;;25.38;47.86;95148.03;5078446;28;20044;-66
2022/06/17 11:42:47;;;;;;;7.05;5.85;;;;;;;25.34;49.27;95135.69;5084266;28;20051;-67
2022/06/17 11:45:18;;;;;;;9.30;6.18;;;;;;;25.30;48.13;95140.84;5076886;28;20047;-67
2022/06/17 11:47:49;;;;;;;9.88;5.30;;;;;;;25.26;44.76;95150.56;5076535;28;20051;-67
2022/06/17 11:50:27;;;;;;;5.53;5.03;;;;;;;25.26;44.47;95139.91;5080345;28;20048;-68
2022/06/17 11:53:12;;;;;;;6.32;4.75;;;;;;;25.43;44.01;95143.66;5050868;28;20047;-68
2022/06/17 11:55:45;;;;;;;5.40;4.75;;;;;;;25.55;43.03;95151.75;5077700;28;20040;-67
2022/06/17 11:58:33;;;;;;;7.47;5.18;;;;;;;25.68;44.51;95145.44;5078577;28;20040;-67
2022/06/17 12:01:14;;;;;;;5.82;5.22;;;;;;;25.82;44.94;95149.78;5080744;28;20047;-70
2022/06/17 12:03:44;;;;;;;10.80;5.82;;;;;;;26.10;45.78;95144.81;5044106;28;20044;-68
2022/06/17 12:06:43;;;;;;;6.72;6.03;;;;;;;26.29;44.99;95137.19;5065520;28;20694;-68
2022/06/17 12:09:29;;;;;;;7.22;5.70;;;;;;;26.42;45.83;95140.72;5080676;28;20059;-69
2022/06/17 12:12:01;;;;;;;9.27;6.75;;;;;;;26.61;45.81;95118.13;5074672;28;20052;-67
2022/06/17 12:15:12;;;;;;;7.25;5.72;;;;;;;27.12;45.88;95128.69;5079151;28;20117;-67
2022/06/17 12:17:41;;;;;;;7.18;5.85;;;;;;;27.17;44.27;95131.97;5062303;28;20147;-71
2022/06/17 12:20:29;;;;;;;7.20;5.53;;;;;;;27.12;43.95;95129.50;5063566;28;20135;-73
2022/06/17 12:23:08;;;;;;;17.08;9.32;;;;;;;27.35;44.84;95121.09;5060004;28;20048;-72
2022/06/17 12:25:50;;;;;;;10.02;5.93;;;;;;;27.43;43.09;95101.53;5080195;28;20043;-72